sensor_id;sensor_type;location;lat;lon;timestamp;temperature;humidity
17740;DHT22;8990;33.226;-97.150;2024-03-06T00:01:17;20.20;99.90
17740;DHT22;8990;33.226;-97.150;2024-03-06T00:03:47;20.10;99.90
17740;DHT22;8990;33.226;-97.150;2024-03-06T00:06:18;20.10;99.90
17740;DHT22;8990;33.226;-97.150;2024-03-06T00:08:47;20.10;99.90
17740;DHT22;8990;33.226;-97.150;2024-03-06T00:11:16;20.00;99.90
17740;DHT22;8990;33.226;-97.150;2024-03-06T00:13:45;20.00;99.90
17740;DHT22;8990;33.226;-97.150;2024-03-06T00:16:15;19.90;99.90
17740;DHT22;8990;33.226;-97.150;2024-03-06T00:18:44;19.90;99.90
17740;DHT22;8990;33.226;-97.150;2024-03-06T00:21:13;19.80;99.90
17740;DHT22;8990;33.226;-97.150;2024-03-06T00:23:43;19.80;99.90
17740;DHT22;8990;33.226;-97.150;2024-03-06T00:26:14;19.80;99.90
17740;DHT22;8990;33.226;-97.150;2024-03-06T00:28:43;19.80;99.90
17740;DHT22;8990;33.226;-97.150;2024-03-06T00:31:12;19.70;99.90
17740;DHT22;8990;33.226;-97.150;2024-03-06T00:33:41;19.60;99.90
17740;DHT22;8990;33.226;-97.150;2024-03-06T00:36:09;19.60;99.90
17740;DHT22;8990;33.226;-97.150;2024-03-06T00:38:38;19.60;99.90
17740;DHT22;8990;33.226;-97.150;2024-03-06T00:41:09;19.50;99.90
17740;DHT22;8990;33.226;-97.150;2024-03-06T00:43:38;19.50;99.90
17740;DHT22;8990;33.226;-97.150;2024-03-06T00:46:07;19.50;99.90
17740;DHT22;8990;33.226;-97.150;2024-03-06T00:48:36;19.40;99.90
17740;DHT22;8990;33.226;-97.150;2024-03-06T00:51:05;19.30;99.90
17740;DHT22;8990;33.226;-97.150;2024-03-06T00:53:35;19.30;99.90
17740;DHT22;8990;33.226;-97.150;2024-03-06T00:56:05;19.20;99.90
17740;DHT22;8990;33.226;-97.150;2024-03-06T00:58:36;19.20;99.90
17740;DHT22;8990;33.226;-97.150;2024-03-06T01:01:05;19.20;99.90
17740;DHT22;8990;33.226;-97.150;2024-03-06T01:03:34;19.10;99.90
17740;DHT22;8990;33.226;-97.150;2024-03-06T01:06:03;19.10;99.90
17740;DHT22;8990;33.226;-97.150;2024-03-06T01:08:32;19.00;99.90
17740;DHT22;8990;33.226;-97.150;2024-03-06T01:11:01;19.00;99.90
17740;DHT22;8990;33.226;-97.150;2024-03-06T01:13:31;19.00;99.90
17740;DHT22;8990;33.226;-97.150;2024-03-06T01:16:01;18.90;99.90
17740;DHT22;8990;33.226;-97.150;2024-03-06T01:18:30;18.90;99.90
17740;DHT22;8990;33.226;-97.150;2024-03-06T01:20:59;18.90;99.90
17740;DHT22;8990;33.226;-97.150;2024-03-06T01:23:29;18.80;99.90
17740;DHT22;8990;33.226;-97.150;2024-03-06T01:25:58;18.80;99.90
17740;DHT22;8990;33.226;-97.150;2024-03-06T01:28:27;18.80;99.90
17740;DHT22;8990;33.226;-97.150;2024-03-06T01:30:56;18.70;99.90
17740;DHT22;8990;33.226;-97.150;2024-03-06T01:33:27;18.70;99.90
17740;DHT22;8990;33.226;-97.150;2024-03-06T01:35:56;18.60;99.90
17740;DHT22;8990;33.226;-97.150;2024-03-06T01:38:26;18.60;99.90
17740;DHT22;8990;33.226;-97.150;2024-03-06T01:40:55;18.60;99.90
17740;DHT22;8990;33.226;-97.150;2024-03-06T01:43:25;18.60;99.90
17740;DHT22;8990;33.226;-97.150;2024-03-06T01:45:54;18.60;99.90
17740;DHT22;8990;33.226;-97.150;2024-03-06T01:48:28;18.60;99.90
17740;DHT22;8990;33.226;-97.150;2024-03-06T01:51:01;18.60;99.90
17740;DHT22;8990;33.226;-97.150;2024-03-06T01:53:32;18.60;99.90
17740;DHT22;8990;33.226;-97.150;2024-03-06T01:56:03;18.60;99.90
17740;DHT22;8990;33.226;-97.150;2024-03-06T01:58:33;18.60;99.90
17740;DHT22;8990;33.226;-97.150;2024-03-06T02:01:02;18.70;99.90
17740;DHT22;8990;33.226;-97.150;2024-03-06T02:03:34;18.70;99.90
17740;DHT22;8990;33.226;-97.150;2024-03-06T02:06:03;18.70;99.90
17740;DHT22;8990;33.226;-97.150;2024-03-06T02:08:33;18.70;99.90
17740;DHT22;8990;33.226;-97.150;2024-03-06T02:11:02;18.60;99.90
17740;DHT22;8990;33.226;-97.150;2024-03-06T02:13:31;18.60;99.90
17740;DHT22;8990;33.226;-97.150;2024-03-06T02:16:00;18.70;99.90
17740;DHT22;8990;33.226;-97.150;2024-03-06T02:18:29;18.60;99.90
17740;DHT22;8990;33.226;-97.150;2024-03-06T02:21:00;18.50;99.90
17740;DHT22;8990;33.226;-97.150;2024-03-06T02:23:29;18.50;99.90
17740;DHT22;8990;33.226;-97.150;2024-03-06T02:25:58;18.50;99.90
17740;DHT22;8990;33.226;-97.150;2024-03-06T02:28:27;18.40;99.90
17740;DHT22;8990;33.226;-97.150;2024-03-06T02:30:56;18.50;99.90
17740;DHT22;8990;33.226;-97.150;2024-03-06T02:33:26;18.40;99.90
17740;DHT22;8990;33.226;-97.150;2024-03-06T02:35:55;18.40;99.90
17740;DHT22;8990;33.226;-97.150;2024-03-06T02:38:27;18.30;99.90
17740;DHT22;8990;33.226;-97.150;2024-03-06T02:40:59;18.30;99.90
17740;DHT22;8990;33.226;-97.150;2024-03-06T02:43:28;18.30;99.90
17740;DHT22;8990;33.226;-97.150;2024-03-06T02:45:57;18.30;99.90
17740;DHT22;8990;33.226;-97.150;2024-03-06T02:48:26;18.30;99.90
17740;DHT22;8990;33.226;-97.150;2024-03-06T02:50:56;18.20;99.90
17740;DHT22;8990;33.226;-97.150;2024-03-06T02:53:27;18.20;99.90
17740;DHT22;8990;33.226;-97.150;2024-03-06T02:55:56;18.30;99.90
17740;DHT22;8990;33.226;-97.150;2024-03-06T02:58:25;18.20;99.90
17740;DHT22;8990;33.226;-97.150;2024-03-06T03:00:58;18.10;99.90
17740;DHT22;8990;33.226;-97.150;2024-03-06T03:03:27;18.10;99.90
17740;DHT22;8990;33.226;-97.150;2024-03-06T03:05:56;18.10;99.90
17740;DHT22;8990;33.226;-97.150;2024-03-06T03:08:28;18.10;99.90
17740;DHT22;8990;33.226;-97.150;2024-03-06T03:10:57;18.00;99.90
17740;DHT22;8990;33.226;-97.150;2024-03-06T03:13:26;18.00;99.90
17740;DHT22;8990;33.226;-97.150;2024-03-06T03:15:55;18.00;99.90
17740;DHT22;8990;33.226;-97.150;2024-03-06T03:18:25;18.00;99.90
17740;DHT22;8990;33.226;-97.150;2024-03-06T03:20:54;18.00;99.90
17740;DHT22;8990;33.226;-97.150;2024-03-06T03:23:23;18.00;99.90
17740;DHT22;8990;33.226;-97.150;2024-03-06T03:25:54;17.90;99.90
17740;DHT22;8990;33.226;-97.150;2024-03-06T03:28:23;17.90;99.90
17740;DHT22;8990;33.226;-97.150;2024-03-06T03:30:52;17.90;99.90
17740;DHT22;8990;33.226;-97.150;2024-03-06T03:33:21;17.80;99.90
17740;DHT22;8990;33.226;-97.150;2024-03-06T03:35:50;17.80;99.90
17740;DHT22;8990;33.226;-97.150;2024-03-06T03:38:19;17.80;99.90
17740;DHT22;8990;33.226;-97.150;2024-03-06T03:40:48;17.80;99.90
17740;DHT22;8990;33.226;-97.150;2024-03-06T03:43:18;17.80;99.90
17740;DHT22;8990;33.226;-97.150;2024-03-06T03:45:48;17.80;99.90
17740;DHT22;8990;33.226;-97.150;2024-03-06T03:48:17;17.80;99.90
17740;DHT22;8990;33.226;-97.150;2024-03-06T03:50:46;17.80;99.90
17740;DHT22;8990;33.226;-97.150;2024-03-06T03:53:15;17.80;99.90
17740;DHT22;8990;33.226;-97.150;2024-03-06T03:55:44;17.80;99.90
17740;DHT22;8990;33.226;-97.150;2024-03-06T03:58:13;17.80;99.90
17740;DHT22;8990;33.226;-97.150;2024-03-06T04:00:44;17.70;99.90
17740;DHT22;8990;33.226;-97.150;2024-03-06T04:03:13;17.80;99.90
17740;DHT22;8990;33.226;-97.150;2024-03-06T04:05:42;17.70;99.90
17740;DHT22;8990;33.226;-97.150;2024-03-06T04:08:12;17.70;99.90
17740;DHT22;8990;33.226;-97.150;2024-03-06T04:10:42;17.80;99.90
17740;DHT22;8990;33.226;-97.150;2024-03-06T04:13:12;17.70;99.90
17740;DHT22;8990;33.226;-97.150;2024-03-06T04:15:43;17.70;99.90
17740;DHT22;8990;33.226;-97.150;2024-03-06T04:18:12;17.60;99.90
17740;DHT22;8990;33.226;-97.150;2024-03-06T04:20:41;17.60;99.90
17740;DHT22;8990;33.226;-97.150;2024-03-06T04:23:11;17.60;99.90
17740;DHT22;8990;33.226;-97.150;2024-03-06T04:25:40;17.60;99.90
17740;DHT22;8990;33.226;-97.150;2024-03-06T04:28:09;17.50;99.90
17740;DHT22;8990;33.226;-97.150;2024-03-06T04:30:38;17.40;99.90
17740;DHT22;8990;33.226;-97.150;2024-03-06T04:33:09;17.40;99.90
17740;DHT22;8990;33.226;-97.150;2024-03-06T04:35:41;17.50;99.90
17740;DHT22;8990;33.226;-97.150;2024-03-06T04:38:09;17.40;99.90
17740;DHT22;8990;33.226;-97.150;2024-03-06T04:40:40;17.40;99.90
17740;DHT22;8990;33.226;-97.150;2024-03-06T04:43:09;17.40;99.90
17740;DHT22;8990;33.226;-97.150;2024-03-06T04:45:38;17.30;99.90
17740;DHT22;8990;33.226;-97.150;2024-03-06T04:48:09;17.30;99.90
17740;DHT22;8990;33.226;-97.150;2024-03-06T04:50:39;17.30;99.90
17740;DHT22;8990;33.226;-97.150;2024-03-06T04:53:08;17.20;99.90
17740;DHT22;8990;33.226;-97.150;2024-03-06T04:55:37;17.20;99.90
17740;DHT22;8990;33.226;-97.150;2024-03-06T04:58:07;17.20;99.90
17740;DHT22;8990;33.226;-97.150;2024-03-06T05:00:37;17.10;99.90
17740;DHT22;8990;33.226;-97.150;2024-03-06T05:03:06;17.00;99.90
17740;DHT22;8990;33.226;-97.150;2024-03-06T05:05:37;16.90;99.90
17740;DHT22;8990;33.226;-97.150;2024-03-06T05:08:07;16.90;99.90
17740;DHT22;8990;33.226;-97.150;2024-03-06T05:10:36;16.90;99.90
17740;DHT22;8990;33.226;-97.150;2024-03-06T05:13:06;16.80;99.90
17740;DHT22;8990;33.226;-97.150;2024-03-06T05:15:35;16.80;99.90
17740;DHT22;8990;33.226;-97.150;2024-03-06T05:18:06;16.80;99.90
17740;DHT22;8990;33.226;-97.150;2024-03-06T05:20:38;16.70;99.90
17740;DHT22;8990;33.226;-97.150;2024-03-06T05:23:07;16.70;99.90
17740;DHT22;8990;33.226;-97.150;2024-03-06T05:25:36;16.70;99.90
17740;DHT22;8990;33.226;-97.150;2024-03-06T05:28:05;16.60;99.90
17740;DHT22;8990;33.226;-97.150;2024-03-06T05:30:34;16.50;99.90
17740;DHT22;8990;33.226;-97.150;2024-03-06T05:33:04;16.50;99.90
17740;DHT22;8990;33.226;-97.150;2024-03-06T05:35:33;16.40;99.90
17740;DHT22;8990;33.226;-97.150;2024-03-06T05:38:03;16.40;99.90
17740;DHT22;8990;33.226;-97.150;2024-03-06T05:40:34;16.40;99.90
17740;DHT22;8990;33.226;-97.150;2024-03-06T05:43:04;16.30;99.90
17740;DHT22;8990;33.226;-97.150;2024-03-06T05:45:33;16.30;99.90
17740;DHT22;8990;33.226;-97.150;2024-03-06T05:48:02;16.20;99.90
17740;DHT22;8990;33.226;-97.150;2024-03-06T05:50:31;16.20;99.90
17740;DHT22;8990;33.226;-97.150;2024-03-06T05:53:00;16.20;99.90
17740;DHT22;8990;33.226;-97.150;2024-03-06T05:55:30;16.20;99.90
17740;DHT22;8990;33.226;-97.150;2024-03-06T05:57:59;16.20;99.90
17740;DHT22;8990;33.226;-97.150;2024-03-06T06:00:28;16.20;99.90
17740;DHT22;8990;33.226;-97.150;2024-03-06T06:02:57;16.10;99.90
17740;DHT22;8990;33.226;-97.150;2024-03-06T06:05:26;16.10;99.90
17740;DHT22;8990;33.226;-97.150;2024-03-06T06:07:55;16.10;99.90
17740;DHT22;8990;33.226;-97.150;2024-03-06T06:10:24;16.00;99.90
17740;DHT22;8990;33.226;-97.150;2024-03-06T06:12:55;15.90;99.90
17740;DHT22;8990;33.226;-97.150;2024-03-06T06:15:24;15.90;99.90
17740;DHT22;8990;33.226;-97.150;2024-03-06T06:17:53;15.80;99.90
17740;DHT22;8990;33.226;-97.150;2024-03-06T06:20:22;15.70;99.90
17740;DHT22;8990;33.226;-97.150;2024-03-06T06:22:51;15.60;99.90
17740;DHT22;8990;33.226;-97.150;2024-03-06T06:25:20;15.60;99.90
17740;DHT22;8990;33.226;-97.150;2024-03-06T06:27:49;15.50;99.90
17740;DHT22;8990;33.226;-97.150;2024-03-06T06:30:19;15.40;99.90
17740;DHT22;8990;33.226;-97.150;2024-03-06T06:32:48;15.30;99.90
17740;DHT22;8990;33.226;-97.150;2024-03-06T06:35:17;15.20;99.90
17740;DHT22;8990;33.226;-97.150;2024-03-06T06:37:46;15.20;99.90
17740;DHT22;8990;33.226;-97.150;2024-03-06T06:40:15;15.10;99.90
17740;DHT22;8990;33.226;-97.150;2024-03-06T06:42:45;15.10;99.90
17740;DHT22;8990;33.226;-97.150;2024-03-06T06:45:18;15.10;99.90
17740;DHT22;8990;33.226;-97.150;2024-03-06T06:47:48;15.10;99.90
17740;DHT22;8990;33.226;-97.150;2024-03-06T06:50:18;15.10;99.90
17740;DHT22;8990;33.226;-97.150;2024-03-06T06:52:49;15.00;99.90
17740;DHT22;8990;33.226;-97.150;2024-03-06T06:55:18;15.00;99.90
17740;DHT22;8990;33.226;-97.150;2024-03-06T06:57:50;14.90;99.90
17740;DHT22;8990;33.226;-97.150;2024-03-06T07:00:20;14.90;99.90
17740;DHT22;8990;33.226;-97.150;2024-03-06T07:02:50;14.90;99.90
17740;DHT22;8990;33.226;-97.150;2024-03-06T07:05:19;14.80;99.90
17740;DHT22;8990;33.226;-97.150;2024-03-06T07:07:47;14.80;99.90
17740;DHT22;8990;33.226;-97.150;2024-03-06T07:10:16;14.70;99.90
17740;DHT22;8990;33.226;-97.150;2024-03-06T07:12:46;14.70;99.90
17740;DHT22;8990;33.226;-97.150;2024-03-06T07:15:14;14.70;99.90
17740;DHT22;8990;33.226;-97.150;2024-03-06T07:17:45;14.60;99.90
17740;DHT22;8990;33.226;-97.150;2024-03-06T07:20:14;14.60;99.90
17740;DHT22;8990;33.226;-97.150;2024-03-06T07:22:43;14.60;99.90
17740;DHT22;8990;33.226;-97.150;2024-03-06T07:25:13;14.60;99.90
17740;DHT22;8990;33.226;-97.150;2024-03-06T07:27:41;14.50;99.90
17740;DHT22;8990;33.226;-97.150;2024-03-06T07:30:11;14.50;99.90
17740;DHT22;8990;33.226;-97.150;2024-03-06T07:32:40;14.50;99.90
17740;DHT22;8990;33.226;-97.150;2024-03-06T07:35:10;14.50;99.90
17740;DHT22;8990;33.226;-97.150;2024-03-06T07:37:40;14.50;99.90
17740;DHT22;8990;33.226;-97.150;2024-03-06T07:40:11;14.40;99.90
17740;DHT22;8990;33.226;-97.150;2024-03-06T07:42:40;14.30;99.90
17740;DHT22;8990;33.226;-97.150;2024-03-06T07:45:10;14.40;99.90
17740;DHT22;8990;33.226;-97.150;2024-03-06T07:47:39;14.30;99.90
17740;DHT22;8990;33.226;-97.150;2024-03-06T07:50:10;14.30;99.90
17740;DHT22;8990;33.226;-97.150;2024-03-06T07:52:45;14.40;99.90
17740;DHT22;8990;33.226;-97.150;2024-03-06T07:55:15;14.20;99.90
17740;DHT22;8990;33.226;-97.150;2024-03-06T07:57:46;14.30;99.90
17740;DHT22;8990;33.226;-97.150;2024-03-06T08:00:15;14.30;99.90
17740;DHT22;8990;33.226;-97.150;2024-03-06T08:02:46;14.30;99.90
17740;DHT22;8990;33.226;-97.150;2024-03-06T08:05:18;14.20;99.90
17740;DHT22;8990;33.226;-97.150;2024-03-06T08:07:48;14.20;99.90
17740;DHT22;8990;33.226;-97.150;2024-03-06T08:10:17;14.20;99.90
17740;DHT22;8990;33.226;-97.150;2024-03-06T08:12:46;14.20;99.90
17740;DHT22;8990;33.226;-97.150;2024-03-06T08:15:16;14.20;99.90
17740;DHT22;8990;33.226;-97.150;2024-03-06T08:17:45;14.20;99.90
17740;DHT22;8990;33.226;-97.150;2024-03-06T08:20:15;14.20;99.90
17740;DHT22;8990;33.226;-97.150;2024-03-06T08:22:45;14.10;99.90
17740;DHT22;8990;33.226;-97.150;2024-03-06T08:25:15;14.10;99.90
17740;DHT22;8990;33.226;-97.150;2024-03-06T08:27:44;14.00;99.90
17740;DHT22;8990;33.226;-97.150;2024-03-06T08:30:13;14.10;99.90
17740;DHT22;8990;33.226;-97.150;2024-03-06T08:32:42;14.10;99.90
17740;DHT22;8990;33.226;-97.150;2024-03-06T08:35:11;14.00;99.90
17740;DHT22;8990;33.226;-97.150;2024-03-06T08:37:41;13.90;99.90
17740;DHT22;8990;33.226;-97.150;2024-03-06T08:40:12;13.90;99.90
17740;DHT22;8990;33.226;-97.150;2024-03-06T08:42:44;13.90;99.90
17740;DHT22;8990;33.226;-97.150;2024-03-06T08:45:14;13.90;99.90
17740;DHT22;8990;33.226;-97.150;2024-03-06T08:47:43;13.80;99.90
17740;DHT22;8990;33.226;-97.150;2024-03-06T08:50:12;13.80;99.90
17740;DHT22;8990;33.226;-97.150;2024-03-06T08:52:42;13.70;99.90
17740;DHT22;8990;33.226;-97.150;2024-03-06T08:55:12;13.70;99.90
17740;DHT22;8990;33.226;-97.150;2024-03-06T08:57:41;13.70;99.90
17740;DHT22;8990;33.226;-97.150;2024-03-06T09:00:11;13.60;99.90
17740;DHT22;8990;33.226;-97.150;2024-03-06T09:02:41;13.60;99.90
17740;DHT22;8990;33.226;-97.150;2024-03-06T09:05:10;13.70;99.90
17740;DHT22;8990;33.226;-97.150;2024-03-06T09:07:40;13.60;99.90
17740;DHT22;8990;33.226;-97.150;2024-03-06T09:10:10;13.70;99.90
17740;DHT22;8990;33.226;-97.150;2024-03-06T09:12:40;13.60;99.90
17740;DHT22;8990;33.226;-97.150;2024-03-06T09:15:09;13.60;99.90
17740;DHT22;8990;33.226;-97.150;2024-03-06T09:17:38;13.60;99.90
17740;DHT22;8990;33.226;-97.150;2024-03-06T09:20:09;13.50;99.90
17740;DHT22;8990;33.226;-97.150;2024-03-06T09:22:38;13.60;99.90
17740;DHT22;8990;33.226;-97.150;2024-03-06T09:25:08;13.50;99.90
17740;DHT22;8990;33.226;-97.150;2024-03-06T09:27:41;13.50;99.90
17740;DHT22;8990;33.226;-97.150;2024-03-06T09:30:11;13.30;99.90
17740;DHT22;8990;33.226;-97.150;2024-03-06T09:32:40;13.40;99.90
17740;DHT22;8990;33.226;-97.150;2024-03-06T09:35:11;13.50;99.90
17740;DHT22;8990;33.226;-97.150;2024-03-06T09:37:41;13.30;99.90
17740;DHT22;8990;33.226;-97.150;2024-03-06T09:40:10;13.30;99.90
17740;DHT22;8990;33.226;-97.150;2024-03-06T09:42:41;13.20;99.90
17740;DHT22;8990;33.226;-97.150;2024-03-06T09:45:12;13.20;99.90
17740;DHT22;8990;33.226;-97.150;2024-03-06T09:47:41;13.20;99.90
17740;DHT22;8990;33.226;-97.150;2024-03-06T09:50:12;13.10;99.90
17740;DHT22;8990;33.226;-97.150;2024-03-06T09:52:43;13.10;99.90
17740;DHT22;8990;33.226;-97.150;2024-03-06T09:55:13;13.00;99.90
17740;DHT22;8990;33.226;-97.150;2024-03-06T09:57:44;13.00;99.90
17740;DHT22;8990;33.226;-97.150;2024-03-06T10:00:13;13.00;99.90
17740;DHT22;8990;33.226;-97.150;2024-03-06T10:02:54;12.90;99.90
17740;DHT22;8990;33.226;-97.150;2024-03-06T10:05:23;12.90;99.90
17740;DHT22;8990;33.226;-97.150;2024-03-06T10:07:54;12.90;99.90
17740;DHT22;8990;33.226;-97.150;2024-03-06T10:10:23;12.90;99.90
17740;DHT22;8990;33.226;-97.150;2024-03-06T10:12:53;12.80;99.90
17740;DHT22;8990;33.226;-97.150;2024-03-06T10:15:24;12.80;99.90
17740;DHT22;8990;33.226;-97.150;2024-03-06T10:17:53;12.70;99.90
17740;DHT22;8990;33.226;-97.150;2024-03-06T10:20:38;12.70;99.90
17740;DHT22;8990;33.226;-97.150;2024-03-06T10:23:10;12.80;99.90
17740;DHT22;8990;33.226;-97.150;2024-03-06T10:25:39;12.70;99.90
17740;DHT22;8990;33.226;-97.150;2024-03-06T10:28:10;12.70;99.90
17740;DHT22;8990;33.226;-97.150;2024-03-06T10:30:40;12.60;99.90
17740;DHT22;8990;33.226;-97.150;2024-03-06T10:33:10;12.60;99.90
17740;DHT22;8990;33.226;-97.150;2024-03-06T10:35:41;12.50;99.90
17740;DHT22;8990;33.226;-97.150;2024-03-06T10:38:11;12.50;99.90
17740;DHT22;8990;33.226;-97.150;2024-03-06T10:40:40;12.40;99.90
17740;DHT22;8990;33.226;-97.150;2024-03-06T10:43:12;12.30;99.90
17740;DHT22;8990;33.226;-97.150;2024-03-06T10:45:47;12.40;99.90
17740;DHT22;8990;33.226;-97.150;2024-03-06T10:48:17;12.40;99.90
17740;DHT22;8990;33.226;-97.150;2024-03-06T10:50:47;12.40;99.90
17740;DHT22;8990;33.226;-97.150;2024-03-06T10:53:18;12.30;99.90
17740;DHT22;8990;33.226;-97.150;2024-03-06T10:55:49;12.20;99.90
17740;DHT22;8990;33.226;-97.150;2024-03-06T10:58:21;12.20;99.90
17740;DHT22;8990;33.226;-97.150;2024-03-06T11:00:51;12.30;99.90
17740;DHT22;8990;33.226;-97.150;2024-03-06T11:03:22;12.10;99.90
17740;DHT22;8990;33.226;-97.150;2024-03-06T11:05:51;12.20;99.90
17740;DHT22;8990;33.226;-97.150;2024-03-06T11:08:20;12.20;99.90
17740;DHT22;8990;33.226;-97.150;2024-03-06T11:10:52;12.20;99.90
17740;DHT22;8990;33.226;-97.150;2024-03-06T11:13:23;12.10;99.90
17740;DHT22;8990;33.226;-97.150;2024-03-06T11:15:53;12.10;99.90
17740;DHT22;8990;33.226;-97.150;2024-03-06T11:18:44;12.20;99.90
17740;DHT22;8990;33.226;-97.150;2024-03-06T11:21:32;12.10;99.90
17740;DHT22;8990;33.226;-97.150;2024-03-06T11:24:14;12.00;99.90
17740;DHT22;8990;33.226;-97.150;2024-03-06T11:26:50;12.10;99.90
17740;DHT22;8990;33.226;-97.150;2024-03-06T11:29:21;12.10;99.90
17740;DHT22;8990;33.226;-97.150;2024-03-06T11:32:05;12.10;99.90
17740;DHT22;8990;33.226;-97.150;2024-03-06T11:34:35;12.10;99.90
17740;DHT22;8990;33.226;-97.150;2024-03-06T11:37:06;12.10;99.90
17740;DHT22;8990;33.226;-97.150;2024-03-06T11:39:37;12.00;99.90
17740;DHT22;8990;33.226;-97.150;2024-03-06T11:42:08;12.00;99.90
17740;DHT22;8990;33.226;-97.150;2024-03-06T11:44:53;12.00;99.90
17740;DHT22;8990;33.226;-97.150;2024-03-06T11:47:24;12.10;99.90
17740;DHT22;8990;33.226;-97.150;2024-03-06T11:49:53;12.00;99.90
17740;DHT22;8990;33.226;-97.150;2024-03-06T11:52:23;11.90;99.90
17740;DHT22;8990;33.226;-97.150;2024-03-06T11:54:52;12.00;99.90
17740;DHT22;8990;33.226;-97.150;2024-03-06T11:57:22;11.80;99.90
17740;DHT22;8990;33.226;-97.150;2024-03-06T11:59:52;12.00;99.90
17740;DHT22;8990;33.226;-97.150;2024-03-06T12:02:22;11.90;99.90
17740;DHT22;8990;33.226;-97.150;2024-03-06T12:04:51;11.90;99.90
17740;DHT22;8990;33.226;-97.150;2024-03-06T12:07:20;11.90;99.90
17740;DHT22;8990;33.226;-97.150;2024-03-06T12:09:51;11.80;99.90
17740;DHT22;8990;33.226;-97.150;2024-03-06T12:12:20;11.90;99.90
17740;DHT22;8990;33.226;-97.150;2024-03-06T12:14:58;11.80;99.90
17740;DHT22;8990;33.226;-97.150;2024-03-06T12:17:27;11.80;99.90
17740;DHT22;8990;33.226;-97.150;2024-03-06T12:19:58;11.90;99.90
17740;DHT22;8990;33.226;-97.150;2024-03-06T12:22:29;11.70;99.90
17740;DHT22;8990;33.226;-97.150;2024-03-06T12:24:59;11.80;99.90
17740;DHT22;8990;33.226;-97.150;2024-03-06T12:27:28;11.70;99.90
17740;DHT22;8990;33.226;-97.150;2024-03-06T12:29:59;11.80;99.90
17740;DHT22;8990;33.226;-97.150;2024-03-06T12:32:28;11.60;99.90
17740;DHT22;8990;33.226;-97.150;2024-03-06T12:34:58;11.80;99.90
17740;DHT22;8990;33.226;-97.150;2024-03-06T12:37:32;11.70;99.90
17740;DHT22;8990;33.226;-97.150;2024-03-06T12:40:01;11.70;99.90
17740;DHT22;8990;33.226;-97.150;2024-03-06T12:42:31;11.70;99.90
17740;DHT22;8990;33.226;-97.150;2024-03-06T12:45:02;11.50;99.90
17740;DHT22;8990;33.226;-97.150;2024-03-06T12:47:31;11.60;99.90
17740;DHT22;8990;33.226;-97.150;2024-03-06T12:50:00;11.70;99.90
17740;DHT22;8990;33.226;-97.150;2024-03-06T12:52:29;11.70;99.90
17740;DHT22;8990;33.226;-97.150;2024-03-06T12:54:58;11.60;99.90
17740;DHT22;8990;33.226;-97.150;2024-03-06T12:57:27;11.60;99.90
17740;DHT22;8990;33.226;-97.150;2024-03-06T12:59:56;11.50;99.90
17740;DHT22;8990;33.226;-97.150;2024-03-06T13:02:28;11.60;99.90
17740;DHT22;8990;33.226;-97.150;2024-03-06T13:04:57;11.60;99.90
17740;DHT22;8990;33.226;-97.150;2024-03-06T13:07:25;11.60;99.90
17740;DHT22;8990;33.226;-97.150;2024-03-06T13:09:55;11.50;99.90
17740;DHT22;8990;33.226;-97.150;2024-03-06T13:12:23;11.50;99.90
17740;DHT22;8990;33.226;-97.150;2024-03-06T13:14:52;11.60;99.90
17740;DHT22;8990;33.226;-97.150;2024-03-06T13:17:21;11.60;99.90
17740;DHT22;8990;33.226;-97.150;2024-03-06T13:19:52;11.60;99.90
17740;DHT22;8990;33.226;-97.150;2024-03-06T13:22:21;11.60;99.90
17740;DHT22;8990;33.226;-97.150;2024-03-06T13:24:50;11.40;99.90
17740;DHT22;8990;33.226;-97.150;2024-03-06T13:27:19;11.50;99.90
17740;DHT22;8990;33.226;-97.150;2024-03-06T13:29:48;11.50;99.90
17740;DHT22;8990;33.226;-97.150;2024-03-06T13:32:18;11.70;99.90
17740;DHT22;8990;33.226;-97.150;2024-03-06T13:34:46;11.70;99.90
17740;DHT22;8990;33.226;-97.150;2024-03-06T13:37:17;11.70;99.90
17740;DHT22;8990;33.226;-97.150;2024-03-06T13:39:49;11.70;99.90
17740;DHT22;8990;33.226;-97.150;2024-03-06T13:42:20;11.80;99.90
17740;DHT22;8990;33.226;-97.150;2024-03-06T13:44:49;11.80;99.90
17740;DHT22;8990;33.226;-97.150;2024-03-06T13:47:18;11.90;99.90
17740;DHT22;8990;33.226;-97.150;2024-03-06T13:49:47;12.10;99.90
17740;DHT22;8990;33.226;-97.150;2024-03-06T13:52:17;12.10;99.90
17740;DHT22;8990;33.226;-97.150;2024-03-06T13:54:47;12.20;99.90
17740;DHT22;8990;33.226;-97.150;2024-03-06T13:57:16;12.20;99.90
17740;DHT22;8990;33.226;-97.150;2024-03-06T13:59:46;12.20;99.90
17740;DHT22;8990;33.226;-97.150;2024-03-06T14:02:15;12.20;99.90
17740;DHT22;8990;33.226;-97.150;2024-03-06T14:04:44;12.40;99.90
17740;DHT22;8990;33.226;-97.150;2024-03-06T14:07:13;12.40;99.90
17740;DHT22;8990;33.226;-97.150;2024-03-06T14:09:43;12.50;99.90
17740;DHT22;8990;33.226;-97.150;2024-03-06T14:12:13;12.50;99.90
17740;DHT22;8990;33.226;-97.150;2024-03-06T14:14:41;12.50;99.90
17740;DHT22;8990;33.226;-97.150;2024-03-06T14:17:12;12.60;99.90
17740;DHT22;8990;33.226;-97.150;2024-03-06T14:19:41;12.70;99.90
17740;DHT22;8990;33.226;-97.150;2024-03-06T14:22:11;12.70;99.90
17740;DHT22;8990;33.226;-97.150;2024-03-06T14:24:41;12.90;99.90
17740;DHT22;8990;33.226;-97.150;2024-03-06T14:27:11;12.90;99.90
17740;DHT22;8990;33.226;-97.150;2024-03-06T14:29:40;13.10;99.90
17740;DHT22;8990;33.226;-97.150;2024-03-06T14:32:10;13.20;99.90
17740;DHT22;8990;33.226;-97.150;2024-03-06T14:34:39;13.20;99.90
17740;DHT22;8990;33.226;-97.150;2024-03-06T14:37:10;13.30;99.90
17740;DHT22;8990;33.226;-97.150;2024-03-06T14:39:40;13.30;99.90
17740;DHT22;8990;33.226;-97.150;2024-03-06T14:42:11;13.60;99.90
17740;DHT22;8990;33.226;-97.150;2024-03-06T14:44:42;13.60;99.90
17740;DHT22;8990;33.226;-97.150;2024-03-06T14:47:11;13.70;99.90
17740;DHT22;8990;33.226;-97.150;2024-03-06T14:49:42;13.80;99.90
17740;DHT22;8990;33.226;-97.150;2024-03-06T14:52:12;13.90;99.90
17740;DHT22;8990;33.226;-97.150;2024-03-06T14:54:41;13.90;99.90
17740;DHT22;8990;33.226;-97.150;2024-03-06T14:57:12;14.00;99.90
17740;DHT22;8990;33.226;-97.150;2024-03-06T14:59:41;14.10;99.90
17740;DHT22;8990;33.226;-97.150;2024-03-06T15:02:11;14.20;99.90
17740;DHT22;8990;33.226;-97.150;2024-03-06T15:04:41;14.30;99.90
17740;DHT22;8990;33.226;-97.150;2024-03-06T15:07:10;14.40;99.90
17740;DHT22;8990;33.226;-97.150;2024-03-06T15:09:39;14.60;99.90
17740;DHT22;8990;33.226;-97.150;2024-03-06T15:12:09;14.60;99.90
17740;DHT22;8990;33.226;-97.150;2024-03-06T15:14:39;14.70;99.90
17740;DHT22;8990;33.226;-97.150;2024-03-06T15:17:08;14.70;99.90
17740;DHT22;8990;33.226;-97.150;2024-03-06T15:19:38;14.80;99.90
17740;DHT22;8990;33.226;-97.150;2024-03-06T15:22:07;14.90;99.90
17740;DHT22;8990;33.226;-97.150;2024-03-06T15:24:38;15.00;99.90
17740;DHT22;8990;33.226;-97.150;2024-03-06T15:27:07;15.00;99.90
17740;DHT22;8990;33.226;-97.150;2024-03-06T15:29:36;15.10;99.90
17740;DHT22;8990;33.226;-97.150;2024-03-06T15:32:07;15.20;99.90